sensor_id;sensor_type;location;lat;lon;timestamp;P1;durP1;ratioP1;P2;durP2;ratioP2
25581;SDS011;13462;50.764;4.332;2023-06-22T00:01:18;6.50;;;5.05;;
25581;SDS011;13462;50.764;4.332;2023-06-22T00:06:27;7.65;;;5.43;;
25581;SDS011;13462;50.764;4.332;2023-06-22T00:08:52;6.35;;;4.65;;
25581;SDS011;13462;50.764;4.332;2023-06-22T00:11:18;6.10;;;4.72;;
25581;SDS011;13462;50.764;4.332;2023-06-22T00:13:45;7.97;;;5.35;;
25581;SDS011;13462;50.764;4.332;2023-06-22T00:16:12;8.05;;;4.95;;
25581;SDS011;13462;50.764;4.332;2023-06-22T00:18:38;6.68;;;5.00;;
25581;SDS011;13462;50.764;4.332;2023-06-22T00:21:04;7.40;;;5.18;;
25581;SDS011;13462;50.764;4.332;2023-06-22T00:23:31;6.15;;;4.50;;
25581;SDS011;13462;50.764;4.332;2023-06-22T00:25:59;5.15;;;4.03;;
25581;SDS011;13462;50.764;4.332;2023-06-22T00:28:25;6.25;;;4.38;;
25581;SDS011;13462;50.764;4.332;2023-06-22T00:30:50;6.10;;;4.60;;
25581;SDS011;13462;50.764;4.332;2023-06-22T00:33:16;4.53;;;4.13;;
25581;SDS011;13462;50.764;4.332;2023-06-22T00:35:42;5.78;;;4.05;;
25581;SDS011;13462;50.764;4.332;2023-06-22T00:38:08;5.75;;;3.83;;
25581;SDS011;13462;50.764;4.332;2023-06-22T00:40:34;4.95;;;3.80;;
25581;SDS011;13462;50.764;4.332;2023-06-22T00:43:00;7.43;;;4.30;;
25581;SDS011;13462;50.764;4.332;2023-06-22T00:45:26;7.93;;;4.35;;
25581;SDS011;13462;50.764;4.332;2023-06-22T00:47:52;6.00;;;4.22;;
25581;SDS011;13462;50.764;4.332;2023-06-22T00:50:20;7.65;;;4.47;;
25581;SDS011;13462;50.764;4.332;2023-06-22T00:52:50;11.63;;;4.53;;
25581;SDS011;13462;50.764;4.332;2023-06-22T00:55:20;6.40;;;4.53;;
25581;SDS011;13462;50.764;4.332;2023-06-22T00:57:47;6.95;;;4.57;;
25581;SDS011;13462;50.764;4.332;2023-06-22T01:00:14;5.43;;;4.32;;
25581;SDS011;13462;50.764;4.332;2023-06-22T01:02:43;6.07;;;4.40;;
25581;SDS011;13462;50.764;4.332;2023-06-22T01:05:13;4.43;;;3.67;;
25581;SDS011;13462;50.764;4.332;2023-06-22T01:07:41;5.97;;;4.15;;
25581;SDS011;13462;50.764;4.332;2023-06-22T01:10:27;7.47;;;4.60;;
25581;SDS011;13462;50.764;4.332;2023-06-22T01:13:13;7.82;;;4.65;;
25581;SDS011;13462;50.764;4.332;2023-06-22T01:15:53;9.23;;;5.40;;
25581;SDS011;13462;50.764;4.332;2023-06-22T01:18:25;7.03;;;5.10;;
25581;SDS011;13462;50.764;4.332;2023-06-22T01:20:57;9.77;;;5.15;;
25581;SDS011;13462;50.764;4.332;2023-06-22T01:23:26;8.20;;;5.65;;
25581;SDS011;13462;50.764;4.332;2023-06-22T01:26:04;7.05;;;4.80;;
25581;SDS011;13462;50.764;4.332;2023-06-22T01:31:08;8.18;;;4.65;;
25581;SDS011;13462;50.764;4.332;2023-06-22T01:33:37;5.90;;;4.68;;
25581;SDS011;13462;50.764;4.332;2023-06-22T01:36:08;7.43;;;4.78;;
25581;SDS011;13462;50.764;4.332;2023-06-22T01:38:38;5.93;;;4.47;;
25581;SDS011;13462;50.764;4.332;2023-06-22T01:41:04;6.53;;;5.40;;
25581;SDS011;13462;50.764;4.332;2023-06-22T01:43:31;6.55;;;4.78;;
25581;SDS011;13462;50.764;4.332;2023-06-22T01:46:18;7.38;;;4.80;;
25581;SDS011;13462;50.764;4.332;2023-06-22T01:48:45;7.43;;;4.82;;
25581;SDS011;13462;50.764;4.332;2023-06-22T01:51:11;8.98;;;4.55;;
25581;SDS011;13462;50.764;4.332;2023-06-22T01:53:37;6.72;;;5.07;;
25581;SDS011;13462;50.764;4.332;2023-06-22T01:56:03;8.38;;;5.30;;
25581;SDS011;13462;50.764;4.332;2023-06-22T01:58:29;5.13;;;4.63;;
25581;SDS011;13462;50.764;4.332;2023-06-22T02:01:00;5.07;;;4.30;;
25581;SDS011;13462;50.764;4.332;2023-06-22T02:03:38;7.70;;;5.25;;
25581;SDS011;13462;50.764;4.332;2023-06-22T02:06:10;6.65;;;4.55;;
25581;SDS011;13462;50.764;4.332;2023-06-22T02:08:41;5.97;;;4.90;;
25581;SDS011;13462;50.764;4.332;2023-06-22T02:11:12;9.77;;;4.35;;
25581;SDS011;13462;50.764;4.332;2023-06-22T02:13:40;7.30;;;4.95;;
25581;SDS011;13462;50.764;4.332;2023-06-22T02:16:09;5.93;;;4.90;;
25581;SDS011;13462;50.764;4.332;2023-06-22T02:18:36;8.20;;;5.15;;
25581;SDS011;13462;50.764;4.332;2023-06-22T02:21:02;8.07;;;5.55;;
25581;SDS011;13462;50.764;4.332;2023-06-22T02:23:28;9.32;;;6.03;;
25581;SDS011;13462;50.764;4.332;2023-06-22T02:25:53;6.57;;;4.88;;
25581;SDS011;13462;50.764;4.332;2023-06-22T02:28:19;8.88;;;5.90;;
25581;SDS011;13462;50.764;4.332;2023-06-22T02:30:45;8.35;;;5.82;;
25581;SDS011;13462;50.764;4.332;2023-06-22T02:33:11;8.38;;;5.38;;
25581;SDS011;13462;50.764;4.332;2023-06-22T02:35:36;8.20;;;5.68;;
25581;SDS011;13462;50.764;4.332;2023-06-22T02:38:03;8.77;;;5.22;;
25581;SDS011;13462;50.764;4.332;2023-06-22T02:40:29;8.95;;;5.45;;
25581;SDS011;13462;50.764;4.332;2023-06-22T02:42:55;6.53;;;5.65;;
25581;SDS011;13462;50.764;4.332;2023-06-22T02:45:23;9.60;;;6.60;;
25581;SDS011;13462;50.764;4.332;2023-06-22T02:47:48;8.95;;;6.68;;
25581;SDS011;13462;50.764;4.332;2023-06-22T02:50:14;6.85;;;5.68;;
25581;SDS011;13462;50.764;4.332;2023-06-22T02:52:40;6.60;;;5.78;;
25581;SDS011;13462;50.764;4.332;2023-06-22T02:55:06;6.68;;;5.57;;
25581;SDS011;13462;50.764;4.332;2023-06-22T02:57:35;7.57;;;6.20;;
25581;SDS011;13462;50.764;4.332;2023-06-22T03:00:02;9.10;;;6.15;;
25581;SDS011;13462;50.764;4.332;2023-06-22T03:02:38;9.02;;;6.93;;
25581;SDS011;13462;50.764;4.332;2023-06-22T03:05:04;9.15;;;6.47;;
25581;SDS011;13462;50.764;4.332;2023-06-22T03:07:31;10.00;;;6.00;;
25581;SDS011;13462;50.764;4.332;2023-06-22T03:09:56;8.20;;;5.95;;
25581;SDS011;13462;50.764;4.332;2023-06-22T03:12:22;6.75;;;5.45;;
25581;SDS011;13462;50.764;4.332;2023-06-22T03:14:48;8.35;;;5.65;;
25581;SDS011;13462;50.764;4.332;2023-06-22T03:17:13;5.80;;;4.90;;
25581;SDS011;13462;50.764;4.332;2023-06-22T03:19:39;10.45;;;6.50;;
25581;SDS011;13462;50.764;4.332;2023-06-22T03:22:05;7.18;;;5.30;;
25581;SDS011;13462;50.764;4.332;2023-06-22T03:24:32;6.75;;;5.30;;
25581;SDS011;13462;50.764;4.332;2023-06-22T03:26:59;10.02;;;5.40;;
25581;SDS011;13462;50.764;4.332;2023-06-22T03:29:25;8.15;;;6.40;;
25581;SDS011;13462;50.764;4.332;2023-06-22T03:31:51;12.82;;;6.60;;
25581;SDS011;13462;50.764;4.332;2023-06-22T03:34:16;9.43;;;5.97;;
25581;SDS011;13462;50.764;4.332;2023-06-22T03:36:42;9.98;;;6.70;;
25581;SDS011;13462;50.764;4.332;2023-06-22T03:39:17;9.18;;;6.03;;
25581;SDS011;13462;50.764;4.332;2023-06-22T03:41:43;8.30;;;6.00;;
25581;SDS011;13462;50.764;4.332;2023-06-22T03:44:08;10.85;;;6.22;;
25581;SDS011;13462;50.764;4.332;2023-06-22T03:46:37;8.93;;;5.75;;
25581;SDS011;13462;50.764;4.332;2023-06-22T03:49:03;8.23;;;4.90;;
25581;SDS011;13462;50.764;4.332;2023-06-22T03:51:29;7.63;;;5.45;;
25581;SDS011;13462;50.764;4.332;2023-06-22T03:53:55;14.90;;;6.70;;
25581;SDS011;13462;50.764;4.332;2023-06-22T03:56:21;8.38;;;5.95;;
25581;SDS011;13462;50.764;4.332;2023-06-22T03:58:47;8.75;;;6.35;;
25581;SDS011;13462;50.764;4.332;2023-06-22T04:01:12;11.02;;;7.43;;
25581;SDS011;13462;50.764;4.332;2023-06-22T04:03:38;9.63;;;7.57;;
25581;SDS011;13462;50.764;4.332;2023-06-22T04:06:04;10.40;;;7.28;;
25581;SDS011;13462;50.764;4.332;2023-06-22T04:08:30;8.70;;;6.55;;
25581;SDS011;13462;50.764;4.332;2023-06-22T04:10:56;8.65;;;6.22;;
25581;SDS011;13462;50.764;4.332;2023-06-22T04:13:21;7.60;;;5.70;;
25581;SDS011;13462;50.764;4.332;2023-06-22T04:15:47;11.40;;;7.70;;
25581;SDS011;13462;50.764;4.332;2023-06-22T04:18:13;8.23;;;6.20;;
25581;SDS011;13462;50.764;4.332;2023-06-22T04:20:39;8.07;;;6.25;;
25581;SDS011;13462;50.764;4.332;2023-06-22T04:23:04;9.25;;;6.47;;
25581;SDS011;13462;50.764;4.332;2023-06-22T04:25:30;8.45;;;6.22;;
25581;SDS011;13462;50.764;4.332;2023-06-22T04:27:56;10.75;;;7.07;;
25581;SDS011;13462;50.764;4.332;2023-06-22T04:30:21;9.65;;;6.63;;
25581;SDS011;13462;50.764;4.332;2023-06-22T04:32:47;11.48;;;7.07;;
25581;SDS011;13462;50.764;4.332;2023-06-22T04:35:21;9.18;;;7.78;;
25581;SDS011;13462;50.764;4.332;2023-06-22T04:37:47;9.90;;;7.72;;
25581;SDS011;13462;50.764;4.332;2023-06-22T04:40:14;10.80;;;7.78;;
25581;SDS011;13462;50.764;4.332;2023-06-22T04:42:40;11.20;;;7.80;;
25581;SDS011;13462;50.764;4.332;2023-06-22T04:45:17;14.07;;;8.90;;
25581;SDS011;13462;50.764;4.332;2023-06-22T04:47:43;13.48;;;8.13;;
25581;SDS011;13462;50.764;4.332;2023-06-22T04:50:10;11.57;;;8.88;;
25581;SDS011;13462;50.764;4.332;2023-06-22T04:52:39;11.45;;;8.52;;
25581;SDS011;13462;50.764;4.332;2023-06-22T04:55:05;12.00;;;8.55;;
25581;SDS011;13462;50.764;4.332;2023-06-22T04:57:31;16.20;;;9.27;;
25581;SDS011;13462;50.764;4.332;2023-06-22T05:00:00;14.55;;;9.48;;
25581;SDS011;13462;50.764;4.332;2023-06-22T05:02:52;16.70;;;11.13;;
25581;SDS011;13462;50.764;4.332;2023-06-22T05:05:18;13.32;;;10.45;;
25581;SDS011;13462;50.764;4.332;2023-06-22T05:07:44;15.57;;;11.27;;
25581;SDS011;13462;50.764;4.332;2023-06-22T05:10:13;15.55;;;12.90;;
25581;SDS011;13462;50.764;4.332;2023-06-22T05:12:39;18.67;;;13.57;;
25581;SDS011;13462;50.764;4.332;2023-06-22T05:15:06;19.48;;;14.30;;
25581;SDS011;13462;50.764;4.332;2023-06-22T05:17:33;21.40;;;14.75;;
25581;SDS011;13462;50.764;4.332;2023-06-22T05:19:59;17.55;;;15.20;;
25581;SDS011;13462;50.764;4.332;2023-06-22T05:22:25;20.70;;;15.57;;
25581;SDS011;13462;50.764;4.332;2023-06-22T05:24:50;19.42;;;15.02;;
25581;SDS011;13462;50.764;4.332;2023-06-22T05:27:16;23.23;;;16.55;;
25581;SDS011;13462;50.764;4.332;2023-06-22T05:29:41;21.50;;;15.65;;
25581;SDS011;13462;50.764;4.332;2023-06-22T05:32:07;20.40;;;16.15;;
25581;SDS011;13462;50.764;4.332;2023-06-22T05:34:33;18.80;;;15.82;;
25581;SDS011;13462;50.764;4.332;2023-06-22T05:36:59;18.65;;;15.18;;
25581;SDS011;13462;50.764;4.332;2023-06-22T05:39:24;19.85;;;13.95;;
25581;SDS011;13462;50.764;4.332;2023-06-22T05:41:50;21.33;;;15.55;;
25581;SDS011;13462;50.764;4.332;2023-06-22T05:44:17;18.33;;;15.98;;
25581;SDS011;13462;50.764;4.332;2023-06-22T05:46:43;23.83;;;16.83;;
25581;SDS011;13462;50.764;4.332;2023-06-22T05:49:09;26.08;;;18.75;;
25581;SDS011;13462;50.764;4.332;2023-06-22T05:51:36;24.73;;;19.55;;
25581;SDS011;13462;50.764;4.332;2023-06-22T05:54:02;25.40;;;21.73;;
25581;SDS011;13462;50.764;4.332;2023-06-22T05:56:28;26.83;;;20.77;;
25581;SDS011;13462;50.764;4.332;2023-06-22T05:58:53;30.45;;;21.55;;
25581;SDS011;13462;50.764;4.332;2023-06-22T06:01:19;25.63;;;21.70;;
25581;SDS011;13462;50.764;4.332;2023-06-22T06:03:45;29.75;;;23.45;;
25581;SDS011;13462;50.764;4.332;2023-06-22T06:06:10;33.25;;;24.10;;
25581;SDS011;13462;50.764;4.332;2023-06-22T06:08:37;34.60;;;26.30;;
25581;SDS011;13462;50.764;4.332;2023-06-22T06:11:03;34.08;;;26.65;;
25581;SDS011;13462;50.764;4.332;2023-06-22T06:13:28;35.55;;;26.42;;
25581;SDS011;13462;50.764;4.332;2023-06-22T06:15:54;33.55;;;26.13;;
25581;SDS011;13462;50.764;4.332;2023-06-22T06:18:21;38.05;;;28.35;;
25581;SDS011;13462;50.764;4.332;2023-06-22T06:20:46;34.30;;;27.20;;
25581;SDS011;13462;50.764;4.332;2023-06-22T06:23:12;33.85;;;26.98;;
25581;SDS011;13462;50.764;4.332;2023-06-22T06:25:37;38.60;;;29.15;;
25581;SDS011;13462;50.764;4.332;2023-06-22T06:28:03;33.05;;;25.10;;
25581;SDS011;13462;50.764;4.332;2023-06-22T06:30:29;34.97;;;26.20;;
25581;SDS011;13462;50.764;4.332;2023-06-22T06:32:55;37.38;;;27.52;;
25581;SDS011;13462;50.764;4.332;2023-06-22T06:35:21;34.60;;;26.88;;
25581;SDS011;13462;50.764;4.332;2023-06-22T06:37:48;43.03;;;26.65;;
25581;SDS011;13462;50.764;4.332;2023-06-22T06:40:15;33.92;;;25.63;;
25581;SDS011;13462;50.764;4.332;2023-06-22T06:42:47;34.30;;;24.98;;
25581;SDS011;13462;50.764;4.332;2023-06-22T06:45:20;37.78;;;24.90;;
25581;SDS011;13462;50.764;4.332;2023-06-22T06:47:51;38.08;;;24.85;;
25581;SDS011;13462;50.764;4.332;2023-06-22T06:50:17;31.40;;;23.83;;
25581;SDS011;13462;50.764;4.332;2023-06-22T06:52:43;35.13;;;24.13;;
25581;SDS011;13462;50.764;4.332;2023-06-22T06:55:25;35.45;;;25.02;;
25581;SDS011;13462;50.764;4.332;2023-06-22T06:57:58;31.60;;;24.88;;
25581;SDS011;13462;50.764;4.332;2023-06-22T07:00:24;33.85;;;24.83;;
25581;SDS011;13462;50.764;4.332;2023-06-22T07:02:55;32.47;;;25.60;;
25581;SDS011;13462;50.764;4.332;2023-06-22T07:05:20;29.70;;;24.50;;
25581;SDS011;13462;50.764;4.332;2023-06-22T07:07:46;32.25;;;23.45;;
25581;SDS011;13462;50.764;4.332;2023-06-22T07:10:12;30.10;;;22.77;;
25581;SDS011;13462;50.764;4.332;2023-06-22T07:12:38;33.70;;;23.92;;
25581;SDS011;13462;50.764;4.332;2023-06-22T07:15:07;31.50;;;23.88;;
25581;SDS011;13462;50.764;4.332;2023-06-22T07:17:42;29.23;;;23.80;;
25581;SDS011;13462;50.764;4.332;2023-06-22T07:20:08;38.13;;;24.85;;
25581;SDS011;13462;50.764;4.332;2023-06-22T07:22:37;31.30;;;24.90;;
25581;SDS011;13462;50.764;4.332;2023-06-22T07:25:05;31.70;;;23.75;;
25581;SDS011;13462;50.764;4.332;2023-06-22T07:28:01;33.45;;;24.40;;
25581;SDS011;13462;50.764;4.332;2023-06-22T07:30:27;32.45;;;24.75;;
25581;SDS011;13462;50.764;4.332;2023-06-22T07:32:53;30.92;;;24.25;;
25581;SDS011;13462;50.764;4.332;2023-06-22T07:35:19;27.55;;;24.27;;
25581;SDS011;13462;50.764;4.332;2023-06-22T07:37:45;36.00;;;24.90;;
25581;SDS011;13462;50.764;4.332;2023-06-22T07:40:11;28.88;;;24.42;;
25581;SDS011;13462;50.764;4.332;2023-06-22T07:42:56;26.67;;;21.92;;
25581;SDS011;13462;50.764;4.332;2023-06-22T07:45:22;30.65;;;24.08;;
25581;SDS011;13462;50.764;4.332;2023-06-22T07:47:48;27.45;;;21.90;;
25581;SDS011;13462;50.764;4.332;2023-06-22T07:53:05;28.87;;;22.77;;
25581;SDS011;13462;50.764;4.332;2023-06-22T07:55:30;27.70;;;21.85;;
25581;SDS011;13462;50.764;4.332;2023-06-22T07:57:56;27.10;;;22.35;;
25581;SDS011;13462;50.764;4.332;2023-06-22T08:00:24;29.23;;;22.35;;
25581;SDS011;13462;50.764;4.332;2023-06-22T08:02:50;32.25;;;22.52;;
25581;SDS011;13462;50.764;4.332;2023-06-22T08:05:15;27.88;;;22.27;;
25581;SDS011;13462;50.764;4.332;2023-06-22T08:07:42;27.35;;;20.33;;
25581;SDS011;13462;50.764;4.332;2023-06-22T08:10:10;27.48;;;22.00;;
25581;SDS011;13462;50.764;4.332;2023-06-22T08:12:36;28.40;;;23.02;;
25581;SDS011;13462;50.764;4.332;2023-06-22T08:15:02;26.35;;;21.55;;
25581;SDS011;13462;50.764;4.332;2023-06-22T08:17:28;28.77;;;21.38;;
25581;SDS011;13462;50.764;4.332;2023-06-22T08:19:54;25.25;;;21.23;;
25581;SDS011;13462;50.764;4.332;2023-06-22T08:22:20;30.17;;;22.50;;
25581;SDS011;13462;50.764;4.332;2023-06-22T08:24:45;27.92;;;21.20;;
25581;SDS011;13462;50.764;4.332;2023-06-22T08:27:11;24.10;;;19.52;;
25581;SDS011;13462;50.764;4.332;2023-06-22T08:29:46;27.67;;;20.75;;
25581;SDS011;13462;50.764;4.332;2023-06-22T08:32:12;24.25;;;20.35;;
25581;SDS011;13462;50.764;4.332;2023-06-22T08:34:37;25.38;;;19.65;;
25581;SDS011;13462;50.764;4.332;2023-06-22T08:37:06;27.30;;;20.52;;
25581;SDS011;13462;50.764;4.332;2023-06-22T08:39:33;25.65;;;20.50;;
25581;SDS011;13462;50.764;4.332;2023-06-22T08:41:59;26.83;;;19.58;;
25581;SDS011;13462;50.764;4.332;2023-06-22T08:44:27;25.08;;;21.10;;
25581;SDS011;13462;50.764;4.332;2023-06-22T08:46:53;28.63;;;21.27;;
25581;SDS011;13462;50.764;4.332;2023-06-22T08:49:18;29.80;;;20.85;;
25581;SDS011;13462;50.764;4.332;2023-06-22T08:51:44;27.40;;;21.17;;
25581;SDS011;13462;50.764;4.332;2023-06-22T08:54:12;24.85;;;20.95;;
25581;SDS011;13462;50.764;4.332;2023-06-22T08:56:38;23.58;;;20.30;;
25581;SDS011;13462;50.764;4.332;2023-06-22T08:59:04;26.02;;;21.42;;
25581;SDS011;13462;50.764;4.332;2023-06-22T09:01:32;26.80;;;22.45;;
25581;SDS011;13462;50.764;4.332;2023-06-22T09:03:58;28.40;;;21.90;;
25581;SDS011;13462;50.764;4.332;2023-06-22T09:06:25;26.67;;;21.23;;
25581;SDS011;13462;50.764;4.332;2023-06-22T09:08:50;25.30;;;20.40;;
25581;SDS011;13462;50.764;4.332;2023-06-22T09:11:16;24.65;;;21.20;;
25581;SDS011;13462;50.764;4.332;2023-06-22T09:27:00;24.98;;;20.52;;
25581;SDS011;13462;50.764;4.332;2023-06-22T09:29:25;22.83;;;20.30;;
25581;SDS011;13462;50.764;4.332;2023-06-22T09:31:51;27.33;;;22.05;;
25581;SDS011;13462;50.764;4.332;2023-06-22T09:34:18;28.38;;;22.17;;
25581;SDS011;13462;50.764;4.332;2023-06-22T09:36:45;29.10;;;22.85;;
25581;SDS011;13462;50.764;4.332;2023-06-22T09:39:11;27.85;;;23.83;;
25581;SDS011;13462;50.764;4.332;2023-06-22T09:41:36;27.63;;;22.83;;
25581;SDS011;13462;50.764;4.332;2023-06-22T09:44:02;26.95;;;22.55;;
25581;SDS011;13462;50.764;4.332;2023-06-22T09:46:28;27.77;;;24.58;;
25581;SDS011;13462;50.764;4.332;2023-06-22T09:48:53;30.60;;;24.73;;
25581;SDS011;13462;50.764;4.332;2023-06-22T09:51:19;30.17;;;25.05;;
25581;SDS011;13462;50.764;4.332;2023-06-22T09:53:46;29.77;;;25.85;;
25581;SDS011;13462;50.764;4.332;2023-06-22T09:56:12;32.63;;;23.77;;
25581;SDS011;13462;50.764;4.332;2023-06-22T09:58:40;29.35;;;24.13;;
25581;SDS011;13462;50.764;4.332;2023-06-22T10:01:09;33.42;;;24.70;;
25581;SDS011;13462;50.764;4.332;2023-06-22T10:03:35;30.05;;;25.25;;
25581;SDS011;13462;50.764;4.332;2023-06-22T10:06:01;30.20;;;25.73;;
25581;SDS011;13462;50.764;4.332;2023-06-22T10:08:27;32.92;;;25.20;;
25581;SDS011;13462;50.764;4.332;2023-06-22T10:10:52;30.38;;;25.05;;
25581;SDS011;13462;50.764;4.332;2023-06-22T10:13:18;28.67;;;24.45;;
25581;SDS011;13462;50.764;4.332;2023-06-22T10:15:44;32.65;;;25.55;;
25581;SDS011;13462;50.764;4.332;2023-06-22T10:18:16;33.17;;;25.73;;
25581;SDS011;13462;50.764;4.332;2023-06-22T10:20:42;31.75;;;25.50;;
25581;SDS011;13462;50.764;4.332;2023-06-22T10:23:08;33.92;;;25.95;;
25581;SDS011;13462;50.764;4.332;2023-06-22T10:25:33;39.83;;;27.52;;
25581;SDS011;13462;50.764;4.332;2023-06-22T10:27:59;36.67;;;28.05;;
25581;SDS011;13462;50.764;4.332;2023-06-22T10:30:24;33.83;;;27.67;;
25581;SDS011;13462;50.764;4.332;2023-06-22T10:32:50;37.35;;;27.55;;
25581;SDS011;13462;50.764;4.332;2023-06-22T10:35:16;35.50;;;27.60;;
25581;SDS011;13462;50.764;4.332;2023-06-22T10:37:42;36.38;;;28.05;;
25581;SDS011;13462;50.764;4.332;2023-06-22T10:40:09;33.55;;;28.42;;
25581;SDS011;13462;50.764;4.332;2023-06-22T10:42:35;30.10;;;26.60;;
25581;SDS011;13462;50.764;4.332;2023-06-22T10:45:01;37.05;;;27.30;;
25581;SDS011;13462;50.764;4.332;2023-06-22T10:47:27;37.75;;;27.90;;
25581;SDS011;13462;50.764;4.332;2023-06-22T10:49:53;30.60;;;26.75;;
25581;SDS011;13462;50.764;4.332;2023-06-22T10:52:18;30.48;;;25.02;;
25581;SDS011;13462;50.764;4.332;2023-06-22T10:54:44;29.17;;;24.70;;
25581;SDS011;13462;50.764;4.332;2023-06-22T10:57:13;32.92;;;27.35;;
25581;SDS011;13462;50.764;4.332;2023-06-22T10:59:39;30.30;;;26.90;;
25581;SDS011;13462;50.764;4.332;2023-06-22T11:02:05;33.97;;;27.27;;
25581;SDS011;13462;50.764;4.332;2023-06-22T11:04:30;33.65;;;27.00;;
25581;SDS011;13462;50.764;4.332;2023-06-22T11:06:56;39.65;;;28.77;;
25581;SDS011;13462;50.764;4.332;2023-06-22T11:09:22;37.17;;;29.35;;
25581;SDS011;13462;50.764;4.332;2023-06-22T11:11:47;31.23;;;27.33;;
25581;SDS011;13462;50.764;4.332;2023-06-22T11:14:15;35.65;;;29.60;;
25581;SDS011;13462;50.764;4.332;2023-06-22T11:16:40;36.90;;;29.90;;
25581;SDS011;13462;50.764;4.332;2023-06-22T11:19:06;40.20;;;31.27;;
25581;SDS011;13462;50.764;4.332;2023-06-22T11:21:31;37.78;;;30.63;;
25581;SDS011;13462;50.764;4.332;2023-06-22T11:23:57;40.38;;;32.35;;
25581;SDS011;13462;50.764;4.332;2023-06-22T11:26:24;36.22;;;30.40;;
25581;SDS011;13462;50.764;4.332;2023-06-22T11:28:52;40.20;;;32.20;;
25581;SDS011;13462;50.764;4.332;2023-06-22T11:31:18;36.28;;;29.15;;
25581;SDS011;13462;50.764;4.332;2023-06-22T11:33:43;33.47;;;29.83;;
25581;SDS011;13462;50.764;4.332;2023-06-22T11:36:10;39.65;;;32.58;;
25581;SDS011;13462;50.764;4.332;2023-06-22T11:38:36;36.95;;;31.65;;
25581;SDS011;13462;50.764;4.332;2023-06-22T11:41:06;38.50;;;33.60;;
25581;SDS011;13462;50.764;4.332;2023-06-22T11:43:32;38.13;;;33.22;;
25581;SDS011;13462;50.764;4.332;2023-06-22T11:45:58;42.22;;;33.40;;
25581;SDS011;13462;50.764;4.332;2023-06-22T11:48:24;40.00;;;32.22;;
25581;SDS011;13462;50.764;4.332;2023-06-22T11:50:50;42.22;;;34.95;;
25581;SDS011;13462;50.764;4.332;2023-06-22T11:53:16;42.08;;;35.72;;
25581;SDS011;13462;50.764;4.332;2023-06-22T11:55:42;46.60;;;36.08;;
25581;SDS011;13462;50.764;4.332;2023-06-22T11:58:08;51.83;;;36.72;;
25581;SDS011;13462;50.764;4.332;2023-06-22T12:00:34;45.67;;;37.40;;
25581;SDS011;13462;50.764;4.332;2023-06-22T12:02:59;47.47;;;38.85;;
25581;SDS011;13462;50.764;4.332;2023-06-22T12:05:25;46.05;;;35.97;;
25581;SDS011;13462;50.764;4.332;2023-06-22T12:07:53;41.33;;;33.83;;
25581;SDS011;13462;50.764;4.332;2023-06-22T12:10:19;41.53;;;35.80;;
25581;SDS011;13462;50.764;4.332;2023-06-22T12:12:45;43.30;;;34.55;;
25581;SDS011;13462;50.764;4.332;2023-06-22T12:15:10;41.75;;;33.53;;
25581;SDS011;13462;50.764;4.332;2023-06-22T12:17:36;44.72;;;33.90;;
25581;SDS011;13462;50.764;4.332;2023-06-22T12:20:02;45.67;;;36.80;;
25581;SDS011;13462;50.764;4.332;2023-06-22T12:22:30;50.50;;;37.33;;
25581;SDS011;13462;50.764;4.332;2023-06-22T12:24:57;52.28;;;38.85;;
25581;SDS011;13462;50.764;4.332;2023-06-22T12:27:22;46.50;;;38.22;;
25581;SDS011;13462;50.764;4.332;2023-06-22T12:29:50;47.33;;;37.70;;
25581;SDS011;13462;50.764;4.332;2023-06-22T12:32:16;48.17;;;38.13;;
25581;SDS011;13462;50.764;4.332;2023-06-22T12:34:42;47.25;;;36.85;;
25581;SDS011;13462;50.764;4.332;2023-06-22T12:37:08;49.22;;;38.92;;
25581;SDS011;13462;50.764;4.332;2023-06-22T12:39:34;49.83;;;39.25;;
25581;SDS011;13462;50.764;4.332;2023-06-22T12:42:00;55.58;;;41.47;;
25581;SDS011;13462;50.764;4.332;2023-06-22T12:44:25;52.38;;;40.50;;
25581;SDS011;13462;50.764;4.332;2023-06-22T12:46:51;53.58;;;40.25;;
25581;SDS011;13462;50.764;4.332;2023-06-22T12:49:16;52.83;;;41.20;;
25581;SDS011;13462;50.764;4.332;2023-06-22T12:51:43;53.60;;;40.95;;
25581;SDS011;13462;50.764;4.332;2023-06-22T12:54:09;56.45;;;43.20;;
25581;SDS011;13462;50.764;4.332;2023-06-22T12:56:36;58.85;;;42.45;;
25581;SDS011;13462;50.764;4.332;2023-06-22T12:59:03;56.95;;;42.90;;
25581;SDS011;13462;50.764;4.332;2023-06-22T13:01:29;57.60;;;42.95;;
25581;SDS011;13462;50.764;4.332;2023-06-22T13:03:55;60.08;;;44.25;;
25581;SDS011;13462;50.764;4.332;2023-06-22T13:06:21;62.35;;;44.95;;
25581;SDS011;13462;50.764;4.332;2023-06-22T13:08:47;59.33;;;45.35;;
25581;SDS011;13462;50.764;4.332;2023-06-22T13:11:12;69.20;;;49.25;;
25581;SDS011;13462;50.764;4.332;2023-06-22T13:13:38;67.80;;;49.45;;
25581;SDS011;13462;50.764;4.332;2023-06-22T13:16:05;70.43;;;49.20;;
25581;SDS011;13462;50.764;4.332;2023-06-22T13:18:30;69.43;;;50.22;;
25581;SDS011;13462;50.764;4.332;2023-06-22T13:20:56;64.53;;;49.58;;
25581;SDS011;13462;50.764;4.332;2023-06-22T13:23:23;65.60;;;47.75;;
25581;SDS011;13462;50.764;4.332;2023-06-22T13:25:48;72.05;;;50.17;;
25581;SDS011;13462;50.764;4.332;2023-06-22T13:28:14;73.68;;;50.78;;
25581;SDS011;13462;50.764;4.332;2023-06-22T13:30:41;72.68;;;51.50;;
25581;SDS011;13462;50.764;4.332;2023-06-22T13:33:07;72.07;;;50.97;;
25581;SDS011;13462;50.764;4.332;2023-06-22T13:35:33;73.43;;;52.75;;
25581;SDS011;13462;50.764;4.332;2023-06-22T13:38:00;82.30;;;55.30;;
25581;SDS011;13462;50.764;4.332;2023-06-22T13:40:25;83.47;;;57.17;;
25581;SDS011;13462;50.764;4.332;2023-06-22T13:42:51;80.38;;;54.72;;
25581;SDS011;13462;50.764;4.332;2023-06-22T13:45:17;81.43;;;56.55;;
25581;SDS011;13462;50.764;4.332;2023-06-22T13:47:44;80.63;;;55.85;;
25581;SDS011;13462;50.764;4.332;2023-06-22T13:50:09;73.57;;;52.80;;
25581;SDS011;13462;50.764;4.332;2023-06-22T13:52:37;73.13;;;53.03;;
25581;SDS011;13462;50.764;4.332;2023-06-22T13:55:03;75.45;;;52.97;;
25581;SDS011;13462;50.764;4.332;2023-06-22T13:57:30;69.15;;;52.50;;
25581;SDS011;13462;50.764;4.332;2023-06-22T13:59:56;76.60;;;53.63;;
25581;SDS011;13462;50.764;4.332;2023-06-22T14:02:21;67.68;;;51.20;;
25581;SDS011;13462;50.764;4.332;2023-06-22T14:04:47;66.40;;;49.17;;
25581;SDS011;13462;50.764;4.332;2023-06-22T14:07:12;66.03;;;48.30;;
25581;SDS011;13462;50.764;4.332;2023-06-22T14:09:38;60.63;;;46.75;;
25581;SDS011;13462;50.764;4.332;2023-06-22T14:12:04;66.22;;;46.72;;
25581;SDS011;13462;50.764;4.332;2023-06-22T14:14:31;62.42;;;45.75;;
25581;SDS011;13462;50.764;4.332;2023-06-22T14:16:58;55.22;;;45.05;;
25581;SDS011;13462;50.764;4.332;2023-06-22T14:19:23;60.05;;;45.58;;
25581;SDS011;13462;50.764;4.332;2023-06-22T14:21:49;60.28;;;44.35;;
25581;SDS011;13462;50.764;4.332;2023-06-22T14:24:15;63.80;;;46.80;;
25581;SDS011;13462;50.764;4.332;2023-06-22T14:26:40;63.28;;;46.22;;
25581;SDS011;13462;50.764;4.332;2023-06-22T14:29:06;62.45;;;46.63;;
25581;SDS011;13462;50.764;4.332;2023-06-22T14:31:31;63.00;;;48.10;;
25581;SDS011;13462;50.764;4.332;2023-06-22T14:33:57;66.55;;;50.78;;
25581;SDS011;13462;50.764;4.332;2023-06-22T14:36:23;66.43;;;49.83;;
25581;SDS011;13462;50.764;4.332;2023-06-22T14:38:48;63.03;;;48.05;;
25581;SDS011;13462;50.764;4.332;2023-06-22T14:41:14;61.33;;;46.75;;
25581;SDS011;13462;50.764;4.332;2023-06-22T14:43:46;58.80;;;46.85;;
25581;SDS011;13462;50.764;4.332;2023-06-22T14:46:13;57.97;;;45.28;;
25581;SDS011;13462;50.764;4.332;2023-06-22T14:48:40;61.30;;;46.63;;